sensor_id;sensor_type;location;lat;lon;timestamp;P1;durP1;ratioP1;P2;durP2;ratioP2
65871;SDS011;52653;50.080;21.992;2022-08-25T00:00:31;15.60;;;9.00;;
65871;SDS011;52653;50.080;21.992;2022-08-25T00:03:23;17.50;;;9.90;;
65871;SDS011;52653;50.080;21.992;2022-08-25T00:06:28;19.30;;;9.20;;
65871;SDS011;52653;50.080;21.992;2022-08-25T00:09:21;20.70;;;9.50;;
65871;SDS011;52653;50.080;21.992;2022-08-25T00:12:15;20.10;;;9.70;;
65871;SDS011;52653;50.080;21.992;2022-08-25T00:15:09;15.30;;;8.80;;
65871;SDS011;52653;50.080;21.992;2022-08-25T00:18:02;20.20;;;9.20;;
65871;SDS011;52653;50.080;21.992;2022-08-25T00:21:07;16.50;;;8.90;;
65871;SDS011;52653;50.080;21.992;2022-08-25T00:23:59;17.00;;;9.70;;
65871;SDS011;52653;50.080;21.992;2022-08-25T00:26:53;20.00;;;8.90;;
65871;SDS011;52653;50.080;21.992;2022-08-25T00:29:47;13.70;;;8.50;;
65871;SDS011;52653;50.080;21.992;2022-08-25T00:32:39;15.80;;;8.50;;
65871;SDS011;52653;50.080;21.992;2022-08-25T00:35:39;13.70;;;8.60;;
65871;SDS011;52653;50.080;21.992;2022-08-25T00:38:32;18.90;;;10.20;;
65871;SDS011;52653;50.080;21.992;2022-08-25T00:41:25;16.20;;;9.30;;
65871;SDS011;52653;50.080;21.992;2022-08-25T00:44:17;16.20;;;9.00;;
65871;SDS011;52653;50.080;21.992;2022-08-25T00:47:09;17.70;;;9.60;;
65871;SDS011;52653;50.080;21.992;2022-08-25T00:50:03;19.80;;;10.20;;
65871;SDS011;52653;50.080;21.992;2022-08-25T00:52:59;18.60;;;10.90;;
65871;SDS011;52653;50.080;21.992;2022-08-25T00:55:53;17.20;;;10.00;;
65871;SDS011;52653;50.080;21.992;2022-08-25T00:58:47;20.00;;;9.80;;
65871;SDS011;52653;50.080;21.992;2022-08-25T01:01:39;19.10;;;9.30;;
65871;SDS011;52653;50.080;21.992;2022-08-25T01:04:32;17.00;;;9.40;;
65871;SDS011;52653;50.080;21.992;2022-08-25T01:07:24;16.20;;;9.40;;
65871;SDS011;52653;50.080;21.992;2022-08-25T01:10:16;20.00;;;10.20;;
65871;SDS011;52653;50.080;21.992;2022-08-25T01:13:12;15.20;;;9.40;;
65871;SDS011;52653;50.080;21.992;2022-08-25T01:16:06;21.40;;;9.90;;
65871;SDS011;52653;50.080;21.992;2022-08-25T01:18:46;16.10;;;8.50;;
65871;SDS011;52653;50.080;21.992;2022-08-25T01:21:40;18.30;;;9.20;;
65871;SDS011;52653;50.080;21.992;2022-08-25T01:24:36;20.30;;;10.10;;
65871;SDS011;52653;50.080;21.992;2022-08-25T01:27:31;17.70;;;10.30;;
65871;SDS011;52653;50.080;21.992;2022-08-25T01:30:24;20.30;;;9.70;;
65871;SDS011;52653;50.080;21.992;2022-08-25T01:33:16;18.60;;;9.60;;
65871;SDS011;52653;50.080;21.992;2022-08-25T01:36:09;21.60;;;10.70;;
65871;SDS011;52653;50.080;21.992;2022-08-25T01:38:56;23.10;;;11.80;;
65871;SDS011;52653;50.080;21.992;2022-08-25T01:41:58;23.20;;;11.50;;
65871;SDS011;52653;50.080;21.992;2022-08-25T01:45:03;21.70;;;10.80;;
65871;SDS011;52653;50.080;21.992;2022-08-25T01:47:56;22.50;;;10.30;;
65871;SDS011;52653;50.080;21.992;2022-08-25T01:50:50;20.60;;;10.50;;
65871;SDS011;52653;50.080;21.992;2022-08-25T01:53:42;21.80;;;9.90;;
65871;SDS011;52653;50.080;21.992;2022-08-25T01:56:34;20.30;;;10.20;;
65871;SDS011;52653;50.080;21.992;2022-08-25T01:59:27;17.20;;;10.50;;
65871;SDS011;52653;50.080;21.992;2022-08-25T02:02:19;20.50;;;10.80;;
65871;SDS011;52653;50.080;21.992;2022-08-25T02:05:14;21.60;;;11.80;;
65871;SDS011;52653;50.080;21.992;2022-08-25T02:08:11;21.20;;;10.50;;
65871;SDS011;52653;50.080;21.992;2022-08-25T02:11:04;23.70;;;11.80;;
65871;SDS011;52653;50.080;21.992;2022-08-25T02:14:00;28.20;;;11.60;;
65871;SDS011;52653;50.080;21.992;2022-08-25T02:16:52;27.00;;;11.60;;
65871;SDS011;52653;50.080;21.992;2022-08-25T02:19:45;26.30;;;11.20;;
65871;SDS011;52653;50.080;21.992;2022-08-25T02:22:38;29.50;;;12.10;;
65871;SDS011;52653;50.080;21.992;2022-08-25T02:25:39;23.20;;;12.60;;
65871;SDS011;52653;50.080;21.992;2022-08-25T02:28:32;23.90;;;12.20;;
65871;SDS011;52653;50.080;21.992;2022-08-25T02:31:25;26.20;;;11.50;;
65871;SDS011;52653;50.080;21.992;2022-08-25T02:34:18;27.40;;;12.10;;
65871;SDS011;52653;50.080;21.992;2022-08-25T02:37:11;22.30;;;11.30;;
65871;SDS011;52653;50.080;21.992;2022-08-25T02:39:43;25.80;;;11.10;;
65871;SDS011;52653;50.080;21.992;2022-08-25T02:42:35;20.70;;;10.70;;
65871;SDS011;52653;50.080;21.992;2022-08-25T02:45:30;19.70;;;11.30;;
65871;SDS011;52653;50.080;21.992;2022-08-25T02:48:23;17.30;;;9.60;;
65871;SDS011;52653;50.080;21.992;2022-08-25T02:51:15;21.80;;;10.10;;
65871;SDS011;52653;50.080;21.992;2022-08-25T02:54:07;17.30;;;10.10;;
65871;SDS011;52653;50.080;21.992;2022-08-25T02:56:59;18.60;;;10.60;;
65871;SDS011;52653;50.080;21.992;2022-08-25T02:59:51;17.90;;;10.70;;
65871;SDS011;52653;50.080;21.992;2022-08-25T03:02:43;17.10;;;9.30;;
65871;SDS011;52653;50.080;21.992;2022-08-25T03:05:36;15.70;;;9.80;;
65871;SDS011;52653;50.080;21.992;2022-08-25T03:08:28;15.70;;;8.50;;
65871;SDS011;52653;50.080;21.992;2022-08-25T03:11:23;15.80;;;8.70;;
65871;SDS011;52653;50.080;21.992;2022-08-25T03:14:15;16.50;;;8.60;;
65871;SDS011;52653;50.080;21.992;2022-08-25T03:17:07;14.30;;;8.70;;
65871;SDS011;52653;50.080;21.992;2022-08-25T03:19:59;13.30;;;8.70;;
65871;SDS011;52653;50.080;21.992;2022-08-25T03:22:53;17.60;;;8.50;;
65871;SDS011;52653;50.080;21.992;2022-08-25T03:25:46;13.70;;;8.00;;
65871;SDS011;52653;50.080;21.992;2022-08-25T03:28:56;12.90;;;8.30;;
65871;SDS011;52653;50.080;21.992;2022-08-25T03:31:48;12.60;;;8.60;;
65871;SDS011;52653;50.080;21.992;2022-08-25T03:34:41;15.20;;;8.60;;
65871;SDS011;52653;50.080;21.992;2022-08-25T03:37:23;16.60;;;8.40;;
65871;SDS011;52653;50.080;21.992;2022-08-25T03:40:15;14.40;;;9.30;;
65871;SDS011;52653;50.080;21.992;2022-08-25T03:43:08;16.70;;;9.60;;
65871;SDS011;52653;50.080;21.992;2022-08-25T03:46:00;15.50;;;9.80;;
65871;SDS011;52653;50.080;21.992;2022-08-25T03:48:53;13.90;;;9.50;;
65871;SDS011;52653;50.080;21.992;2022-08-25T03:51:47;16.00;;;9.70;;
65871;SDS011;52653;50.080;21.992;2022-08-25T03:54:40;13.60;;;9.50;;
65871;SDS011;52653;50.080;21.992;2022-08-25T03:57:32;13.10;;;9.20;;
65871;SDS011;52653;50.080;21.992;2022-08-25T04:00:25;14.20;;;9.40;;
65871;SDS011;52653;50.080;21.992;2022-08-25T04:03:17;19.30;;;9.70;;
65871;SDS011;52653;50.080;21.992;2022-08-25T04:06:10;19.70;;;9.80;;
65871;SDS011;52653;50.080;21.992;2022-08-25T04:09:03;16.50;;;9.20;;
65871;SDS011;52653;50.080;21.992;2022-08-25T04:11:58;13.10;;;8.70;;
65871;SDS011;52653;50.080;21.992;2022-08-25T04:14:50;16.60;;;10.10;;
65871;SDS011;52653;50.080;21.992;2022-08-25T04:17:42;16.80;;;9.50;;
65871;SDS011;52653;50.080;21.992;2022-08-25T04:20:34;18.00;;;9.70;;
65871;SDS011;52653;50.080;21.992;2022-08-25T04:23:29;20.60;;;9.60;;
65871;SDS011;52653;50.080;21.992;2022-08-25T04:26:23;16.30;;;9.00;;
65871;SDS011;52653;50.080;21.992;2022-08-25T04:29:17;20.50;;;10.30;;
65871;SDS011;52653;50.080;21.992;2022-08-25T04:32:04;14.50;;;9.50;;
65871;SDS011;52653;50.080;21.992;2022-08-25T04:34:56;18.90;;;9.60;;
65871;SDS011;52653;50.080;21.992;2022-08-25T04:37:49;15.20;;;9.30;;
65871;SDS011;52653;50.080;21.992;2022-08-25T04:40:39;14.20;;;8.20;;
65871;SDS011;52653;50.080;21.992;2022-08-25T04:43:32;17.10;;;8.80;;
65871;SDS011;52653;50.080;21.992;2022-08-25T04:46:26;10.30;;;8.20;;
65871;SDS011;52653;50.080;21.992;2022-08-25T04:49:14;14.80;;;8.40;;
65871;SDS011;52653;50.080;21.992;2022-08-25T04:52:06;15.00;;;8.90;;
65871;SDS011;52653;50.080;21.992;2022-08-25T04:55:02;13.00;;;8.30;;
65871;SDS011;52653;50.080;21.992;2022-08-25T04:57:55;16.00;;;7.80;;
65871;SDS011;52653;50.080;21.992;2022-08-25T05:00:47;16.80;;;8.50;;
65871;SDS011;52653;50.080;21.992;2022-08-25T05:03:40;14.50;;;8.50;;
65871;SDS011;52653;50.080;21.992;2022-08-25T05:06:32;10.90;;;7.90;;
65871;SDS011;52653;50.080;21.992;2022-08-25T05:09:25;12.30;;;8.50;;
65871;SDS011;52653;50.080;21.992;2022-08-25T05:12:20;12.90;;;9.50;;
65871;SDS011;52653;50.080;21.992;2022-08-25T05:15:12;13.70;;;9.10;;
65871;SDS011;52653;50.080;21.992;2022-08-25T05:18:22;13.30;;;8.90;;
65871;SDS011;52653;50.080;21.992;2022-08-25T05:21:17;11.90;;;9.50;;
65871;SDS011;52653;50.080;21.992;2022-08-25T05:24:11;11.20;;;8.50;;
65871;SDS011;52653;50.080;21.992;2022-08-25T05:27:05;12.70;;;9.20;;
65871;SDS011;52653;50.080;21.992;2022-08-25T05:29:57;14.00;;;9.70;;
65871;SDS011;52653;50.080;21.992;2022-08-25T05:32:50;14.90;;;10.10;;
65871;SDS011;52653;50.080;21.992;2022-08-25T05:35:42;23.70;;;11.00;;
65871;SDS011;52653;50.080;21.992;2022-08-25T05:38:34;17.70;;;10.90;;
65871;SDS011;52653;50.080;21.992;2022-08-25T05:41:28;14.80;;;10.80;;
65871;SDS011;52653;50.080;21.992;2022-08-25T05:44:21;16.40;;;10.80;;
65871;SDS011;52653;50.080;21.992;2022-08-25T05:47:06;16.30;;;11.10;;
65871;SDS011;52653;50.080;21.992;2022-08-25T05:49:58;16.10;;;11.90;;
65871;SDS011;52653;50.080;21.992;2022-08-25T05:52:50;15.40;;;11.60;;
65871;SDS011;52653;50.080;21.992;2022-08-25T05:55:44;17.50;;;11.80;;
65871;SDS011;52653;50.080;21.992;2022-08-25T05:58:29;17.50;;;11.90;;
65871;SDS011;52653;50.080;21.992;2022-08-25T06:01:23;18.50;;;11.60;;
65871;SDS011;52653;50.080;21.992;2022-08-25T06:04:34;18.50;;;12.30;;
65871;SDS011;52653;50.080;21.992;2022-08-25T06:07:29;22.30;;;13.30;;
65871;SDS011;52653;50.080;21.992;2022-08-25T06:10:22;18.70;;;12.00;;
65871;SDS011;52653;50.080;21.992;2022-08-25T06:13:14;20.60;;;12.20;;
65871;SDS011;52653;50.080;21.992;2022-08-25T06:16:16;21.30;;;13.40;;
65871;SDS011;52653;50.080;21.992;2022-08-25T06:19:09;19.90;;;12.20;;
65871;SDS011;52653;50.080;21.992;2022-08-25T06:22:01;20.00;;;13.20;;
65871;SDS011;52653;50.080;21.992;2022-08-25T06:24:53;17.60;;;12.70;;
65871;SDS011;52653;50.080;21.992;2022-08-25T06:27:36;19.20;;;12.30;;
65871;SDS011;52653;50.080;21.992;2022-08-25T06:30:29;21.50;;;12.00;;
65871;SDS011;52653;50.080;21.992;2022-08-25T06:33:21;19.40;;;12.30;;
65871;SDS011;52653;50.080;21.992;2022-08-25T06:36:13;18.20;;;12.70;;
65871;SDS011;52653;50.080;21.992;2022-08-25T06:39:06;22.30;;;13.90;;
65871;SDS011;52653;50.080;21.992;2022-08-25T06:41:59;20.60;;;15.20;;
65871;SDS011;52653;50.080;21.992;2022-08-25T06:44:51;20.20;;;15.60;;
65871;SDS011;52653;50.080;21.992;2022-08-25T06:47:43;26.00;;;14.90;;
65871;SDS011;52653;50.080;21.992;2022-08-25T06:50:36;21.30;;;13.50;;
65871;SDS011;52653;50.080;21.992;2022-08-25T06:53:29;24.20;;;15.60;;
65871;SDS011;52653;50.080;21.992;2022-08-25T06:56:21;20.70;;;15.50;;
65871;SDS011;52653;50.080;21.992;2022-08-25T06:59:04;24.70;;;17.40;;
65871;SDS011;52653;50.080;21.992;2022-08-25T07:01:57;25.50;;;16.60;;
65871;SDS011;52653;50.080;21.992;2022-08-25T07:04:51;26.90;;;18.70;;
65871;SDS011;52653;50.080;21.992;2022-08-25T07:07:34;27.40;;;18.20;;
65871;SDS011;52653;50.080;21.992;2022-08-25T07:10:32;26.70;;;17.00;;
65871;SDS011;52653;50.080;21.992;2022-08-25T07:13:24;20.70;;;16.30;;
65871;SDS011;52653;50.080;21.992;2022-08-25T07:16:18;21.80;;;15.20;;
65871;SDS011;52653;50.080;21.992;2022-08-25T07:19:09;20.60;;;15.70;;
65871;SDS011;52653;50.080;21.992;2022-08-25T07:22:02;21.00;;;17.20;;
65871;SDS011;52653;50.080;21.992;2022-08-25T07:24:57;29.60;;;19.80;;
65871;SDS011;52653;50.080;21.992;2022-08-25T07:27:49;28.10;;;20.00;;
65871;SDS011;52653;50.080;21.992;2022-08-25T07:30:46;38.00;;;23.30;;
65871;SDS011;52653;50.080;21.992;2022-08-25T07:33:40;28.70;;;20.60;;
65871;SDS011;52653;50.080;21.992;2022-08-25T07:36:54;30.20;;;18.90;;
65871;SDS011;52653;50.080;21.992;2022-08-25T07:39:48;25.30;;;18.90;;
65871;SDS011;52653;50.080;21.992;2022-08-25T07:42:30;29.40;;;19.10;;
65871;SDS011;52653;50.080;21.992;2022-08-25T07:45:21;29.60;;;20.30;;
65871;SDS011;52653;50.080;21.992;2022-08-25T07:48:18;29.20;;;19.60;;
65871;SDS011;52653;50.080;21.992;2022-08-25T07:51:11;32.60;;;20.90;;
65871;SDS011;52653;50.080;21.992;2022-08-25T07:53:43;30.50;;;20.30;;
65871;SDS011;52653;50.080;21.992;2022-08-25T07:56:24;27.30;;;19.90;;
65871;SDS011;52653;50.080;21.992;2022-08-25T07:59:16;33.10;;;19.90;;
65871;SDS011;52653;50.080;21.992;2022-08-25T08:02:09;32.60;;;20.70;;
65871;SDS011;52653;50.080;21.992;2022-08-25T08:05:00;28.70;;;21.10;;
65871;SDS011;52653;50.080;21.992;2022-08-25T08:10:48;28.70;;;20.70;;
65871;SDS011;52653;50.080;21.992;2022-08-25T08:13:59;28.20;;;19.80;;
65871;SDS011;52653;50.080;21.992;2022-08-25T08:16:51;28.80;;;18.40;;
65871;SDS011;52653;50.080;21.992;2022-08-25T08:19:35;31.90;;;16.90;;
65871;SDS011;52653;50.080;21.992;2022-08-25T08:22:24;25.90;;;16.70;;
65871;SDS011;52653;50.080;21.992;2022-08-25T08:25:17;29.70;;;20.00;;
65871;SDS011;52653;50.080;21.992;2022-08-25T08:28:15;27.20;;;18.60;;
65871;SDS011;52653;50.080;21.992;2022-08-25T08:31:07;29.80;;;18.80;;
65871;SDS011;52653;50.080;21.992;2022-08-25T08:34:00;29.60;;;18.60;;
65871;SDS011;52653;50.080;21.992;2022-08-25T08:36:52;24.10;;;16.90;;
65871;SDS011;52653;50.080;21.992;2022-08-25T08:39:45;29.40;;;16.00;;
65871;SDS011;52653;50.080;21.992;2022-08-25T08:42:46;28.10;;;14.40;;
65871;SDS011;52653;50.080;21.992;2022-08-25T08:45:46;23.90;;;14.40;;
65871;SDS011;52653;50.080;21.992;2022-08-25T08:48:57;27.50;;;15.50;;
65871;SDS011;52653;50.080;21.992;2022-08-25T08:51:56;20.50;;;14.30;;
65871;SDS011;52653;50.080;21.992;2022-08-25T08:54:52;25.70;;;15.50;;
65871;SDS011;52653;50.080;21.992;2022-08-25T08:57:54;23.90;;;14.80;;
65871;SDS011;52653;50.080;21.992;2022-08-25T09:00:49;24.60;;;15.50;;
65871;SDS011;52653;50.080;21.992;2022-08-25T09:03:47;23.10;;;14.10;;
65871;SDS011;52653;50.080;21.992;2022-08-25T09:06:45;25.20;;;14.00;;
65871;SDS011;52653;50.080;21.992;2022-08-25T09:09:39;27.20;;;13.90;;
65871;SDS011;52653;50.080;21.992;2022-08-25T09:12:35;23.70;;;14.40;;
65871;SDS011;52653;50.080;21.992;2022-08-25T09:15:38;21.20;;;13.40;;
65871;SDS011;52653;50.080;21.992;2022-08-25T09:18:59;25.50;;;12.50;;
65871;SDS011;52653;50.080;21.992;2022-08-25T09:22:14;24.20;;;10.80;;
65871;SDS011;52653;50.080;21.992;2022-08-25T09:25:26;24.10;;;11.20;;
65871;SDS011;52653;50.080;21.992;2022-08-25T09:28:42;23.20;;;10.60;;
65871;SDS011;52653;50.080;21.992;2022-08-25T09:31:39;21.70;;;11.60;;
65871;SDS011;52653;50.080;21.992;2022-08-25T09:34:33;23.70;;;11.40;;
65871;SDS011;52653;50.080;21.992;2022-08-25T09:37:26;22.70;;;11.60;;
65871;SDS011;52653;50.080;21.992;2022-08-25T09:40:20;19.60;;;10.60;;
65871;SDS011;52653;50.080;21.992;2022-08-25T09:43:19;21.80;;;11.20;;
65871;SDS011;52653;50.080;21.992;2022-08-25T09:46:14;23.70;;;10.80;;
65871;SDS011;52653;50.080;21.992;2022-08-25T09:49:15;22.80;;;11.10;;
65871;SDS011;52653;50.080;21.992;2022-08-25T09:55:30;19.00;;;10.50;;
65871;SDS011;52653;50.080;21.992;2022-08-25T09:58:23;19.70;;;8.90;;
65871;SDS011;52653;50.080;21.992;2022-08-25T10:01:16;19.80;;;9.20;;
65871;SDS011;52653;50.080;21.992;2022-08-25T10:04:01;16.70;;;8.30;;
65871;SDS011;52653;50.080;21.992;2022-08-25T10:07:19;17.90;;;8.10;;
65871;SDS011;52653;50.080;21.992;2022-08-25T10:10:16;21.90;;;7.50;;
65871;SDS011;52653;50.080;21.992;2022-08-25T10:13:13;17.20;;;7.90;;
65871;SDS011;52653;50.080;21.992;2022-08-25T10:16:04;18.00;;;7.50;;
65871;SDS011;52653;50.080;21.992;2022-08-25T10:19:12;15.40;;;6.70;;
65871;SDS011;52653;50.080;21.992;2022-08-25T10:22:20;19.40;;;7.50;;
65871;SDS011;52653;50.080;21.992;2022-08-25T10:25:23;15.20;;;7.10;;
65871;SDS011;52653;50.080;21.992;2022-08-25T10:31:13;18.30;;;6.80;;
65871;SDS011;52653;50.080;21.992;2022-08-25T10:34:14;19.20;;;7.10;;
65871;SDS011;52653;50.080;21.992;2022-08-25T10:37:11;18.50;;;7.00;;
65871;SDS011;52653;50.080;21.992;2022-08-25T10:40:13;19.90;;;7.20;;
65871;SDS011;52653;50.080;21.992;2022-08-25T10:43:14;17.30;;;6.40;;
65871;SDS011;52653;50.080;21.992;2022-08-25T10:46:15;16.40;;;5.90;;
65871;SDS011;52653;50.080;21.992;2022-08-25T10:49:14;21.30;;;6.30;;
65871;SDS011;52653;50.080;21.992;2022-08-25T10:52:04;16.10;;;6.30;;
65871;SDS011;52653;50.080;21.992;2022-08-25T10:54:56;20.20;;;6.10;;
65871;SDS011;52653;50.080;21.992;2022-08-25T10:57:56;14.00;;;5.70;;
65871;SDS011;52653;50.080;21.992;2022-08-25T11:01:00;15.00;;;5.70;;
65871;SDS011;52653;50.080;21.992;2022-08-25T11:04:06;19.70;;;6.20;;
65871;SDS011;52653;50.080;21.992;2022-08-25T11:07:03;15.80;;;5.10;;
65871;SDS011;52653;50.080;21.992;2022-08-25T11:10:02;12.10;;;5.20;;
65871;SDS011;52653;50.080;21.992;2022-08-25T11:12:59;13.40;;;4.90;;
65871;SDS011;52653;50.080;21.992;2022-08-25T11:16:01;14.40;;;4.40;;
65871;SDS011;52653;50.080;21.992;2022-08-25T11:19:08;15.10;;;4.80;;
65871;SDS011;52653;50.080;21.992;2022-08-25T11:21:59;14.40;;;4.40;;
65871;SDS011;52653;50.080;21.992;2022-08-25T11:24:59;14.20;;;4.40;;
65871;SDS011;52653;50.080;21.992;2022-08-25T11:27:59;15.20;;;4.60;;
65871;SDS011;52653;50.080;21.992;2022-08-25T11:30:59;9.70;;;4.30;;
65871;SDS011;52653;50.080;21.992;2022-08-25T11:33:53;12.90;;;4.50;;
65871;SDS011;52653;50.080;21.992;2022-08-25T11:36:49;10.10;;;4.20;;
65871;SDS011;52653;50.080;21.992;2022-08-25T11:39:57;13.80;;;4.80;;
65871;SDS011;52653;50.080;21.992;2022-08-25T11:43:04;11.00;;;3.90;;
65871;SDS011;52653;50.080;21.992;2022-08-25T11:46:06;10.10;;;3.90;;
65871;SDS011;52653;50.080;21.992;2022-08-25T11:49:22;10.10;;;4.10;;
65871;SDS011;52653;50.080;21.992;2022-08-25T11:52:42;14.90;;;4.20;;
65871;SDS011;52653;50.080;21.992;2022-08-25T11:55:46;12.40;;;4.40;;
65871;SDS011;52653;50.080;21.992;2022-08-25T11:58:44;13.30;;;4.50;;
65871;SDS011;52653;50.080;21.992;2022-08-25T12:08:49;12.30;;;3.80;;
65871;SDS011;52653;50.080;21.992;2022-08-25T12:11:50;12.30;;;3.70;;
65871;SDS011;52653;50.080;21.992;2022-08-25T12:14:44;14.10;;;3.90;;
65871;SDS011;52653;50.080;21.992;2022-08-25T12:17:37;10.60;;;4.40;;
65871;SDS011;52653;50.080;21.992;2022-08-25T12:24:04;12.80;;;4.20;;
65871;SDS011;52653;50.080;21.992;2022-08-25T12:26:47;13.70;;;4.10;;
65871;SDS011;52653;50.080;21.992;2022-08-25T12:29:45;9.20;;;3.40;;
65871;SDS011;52653;50.080;21.992;2022-08-25T12:32:46;11.90;;;3.90;;
65871;SDS011;52653;50.080;21.992;2022-08-25T12:35:54;13.80;;;3.50;;
65871;SDS011;52653;50.080;21.992;2022-08-25T12:38:48;10.30;;;4.10;;
65871;SDS011;52653;50.080;21.992;2022-08-25T12:41:23;13.00;;;3.80;;
65871;SDS011;52653;50.080;21.992;2022-08-25T12:44:31;9.30;;;3.10;;
65871;SDS011;52653;50.080;21.992;2022-08-25T12:47:29;9.10;;;4.10;;
65871;SDS011;52653;50.080;21.992;2022-08-25T12:50:26;6.60;;;3.40;;
65871;SDS011;52653;50.080;21.992;2022-08-25T12:53:13;8.30;;;3.50;;
65871;SDS011;52653;50.080;21.992;2022-08-25T12:56:27;8.90;;;3.40;;
65871;SDS011;52653;50.080;21.992;2022-08-25T12:59:32;9.50;;;4.00;;
65871;SDS011;52653;50.080;21.992;2022-08-25T13:05:46;7.70;;;3.80;;
65871;SDS011;52653;50.080;21.992;2022-08-25T13:12:36;8.20;;;3.30;;
65871;SDS011;52653;50.080;21.992;2022-08-25T13:15:37;11.50;;;3.70;;
65871;SDS011;52653;50.080;21.992;2022-08-25T13:18:35;11.80;;;3.70;;
65871;SDS011;52653;50.080;21.992;2022-08-25T13:21:29;7.30;;;3.70;;
65871;SDS011;52653;50.080;21.992;2022-08-25T13:24:26;9.70;;;3.50;;
65871;SDS011;52653;50.080;21.992;2022-08-25T13:27:28;11.70;;;3.60;;
65871;SDS011;52653;50.080;21.992;2022-08-25T13:30:25;8.30;;;3.80;;
65871;SDS011;52653;50.080;21.992;2022-08-25T13:33:19;8.80;;;3.30;;
65871;SDS011;52653;50.080;21.992;2022-08-25T13:36:14;9.30;;;3.90;;
65871;SDS011;52653;50.080;21.992;2022-08-25T13:39:16;10.10;;;3.30;;
65871;SDS011;52653;50.080;21.992;2022-08-25T13:42:30;10.00;;;3.90;;
65871;SDS011;52653;50.080;21.992;2022-08-25T13:45:22;11.70;;;3.60;;
65871;SDS011;52653;50.080;21.992;2022-08-25T13:48:32;9.50;;;3.20;;
65871;SDS011;52653;50.080;21.992;2022-08-25T13:51:26;11.70;;;3.30;;
65871;SDS011;52653;50.080;21.992;2022-08-25T13:54:24;7.20;;;2.90;;
65871;SDS011;52653;50.080;21.992;2022-08-25T13:57:16;11.20;;;3.50;;
65871;SDS011;52653;50.080;21.992;2022-08-25T14:00:13;9.00;;;3.30;;
65871;SDS011;52653;50.080;21.992;2022-08-25T14:06:05;8.10;;;3.50;;
65871;SDS011;52653;50.080;21.992;2022-08-25T14:09:10;8.30;;;3.40;;
65871;SDS011;52653;50.080;21.992;2022-08-25T14:12:04;11.10;;;3.20;;
65871;SDS011;52653;50.080;21.992;2022-08-25T14:14:58;11.70;;;3.50;;
65871;SDS011;52653;50.080;21.992;2022-08-25T14:17:59;7.20;;;3.50;;
65871;SDS011;52653;50.080;21.992;2022-08-25T14:20:55;11.50;;;3.40;;
65871;SDS011;52653;50.080;21.992;2022-08-25T14:23:50;10.40;;;3.60;;
65871;SDS011;52653;50.080;21.992;2022-08-25T14:26:33;13.20;;;3.70;;
65871;SDS011;52653;50.080;21.992;2022-08-25T14:29:31;7.00;;;3.00;;
65871;SDS011;52653;50.080;21.992;2022-08-25T14:32:29;8.90;;;3.10;;
65871;SDS011;52653;50.080;21.992;2022-08-25T14:35:21;9.10;;;3.50;;
65871;SDS011;52653;50.080;21.992;2022-08-25T14:38:14;6.40;;;3.50;;
65871;SDS011;52653;50.080;21.992;2022-08-25T14:41:08;6.80;;;3.40;;
65871;SDS011;52653;50.080;21.992;2022-08-25T14:44:01;14.10;;;3.60;;
65871;SDS011;52653;50.080;21.992;2022-08-25T14:46:54;10.20;;;4.10;;
65871;SDS011;52653;50.080;21.992;2022-08-25T14:49:37;8.40;;;3.50;;
65871;SDS011;52653;50.080;21.992;2022-08-25T14:52:34;9.60;;;3.40;;
65871;SDS011;52653;50.080;21.992;2022-08-25T14:55:26;12.30;;;3.70;;
65871;SDS011;52653;50.080;21.992;2022-08-25T14:58:20;11.00;;;4.00;;
65871;SDS011;52653;50.080;21.992;2022-08-25T15:01:15;9.40;;;3.60;;
65871;SDS011;52653;50.080;21.992;2022-08-25T15:04:10;11.00;;;4.00;;
65871;SDS011;52653;50.080;21.992;2022-08-25T15:06:58;10.20;;;3.90;;
65871;SDS011;52653;50.080;21.992;2022-08-25T15:10:11;8.20;;;3.60;;
65871;SDS011;52653;50.080;21.992;2022-08-25T15:12:44;9.10;;;4.20;;
65871;SDS011;52653;50.080;21.992;2022-08-25T15:15:37;7.30;;;3.80;;
65871;SDS011;52653;50.080;21.992;2022-08-25T15:18:46;8.30;;;3.70;;
65871;SDS011;52653;50.080;21.992;2022-08-25T15:21:31;8.10;;;3.40;;
65871;SDS011;52653;50.080;21.992;2022-08-25T15:24:23;9.40;;;3.90;;
65871;SDS011;52653;50.080;21.992;2022-08-25T15:27:17;7.20;;;3.40;;
65871;SDS011;52653;50.080;21.992;2022-08-25T15:29:59;9.80;;;3.90;;
65871;SDS011;52653;50.080;21.992;2022-08-25T15:32:45;11.20;;;3.80;;
65871;SDS011;52653;50.080;21.992;2022-08-25T15:35:38;9.90;;;3.50;;
65871;SDS011;52653;50.080;21.992;2022-08-25T15:38:33;9.70;;;3.30;;
65871;SDS011;52653;50.080;21.992;2022-08-25T15:41:25;7.30;;;3.10;;
65871;SDS011;52653;50.080;21.992;2022-08-25T15:44:18;9.20;;;3.20;;
65871;SDS011;52653;50.080;21.992;2022-08-25T15:47:17;9.50;;;3.30;;
65871;SDS011;52653;50.080;21.992;2022-08-25T15:50:11;7.80;;;3.10;;
65871;SDS011;52653;50.080;21.992;2022-08-25T15:53:05;11.10;;;3.50;;
65871;SDS011;52653;50.080;21.992;2022-08-25T15:55:58;9.10;;;3.60;;
65871;SDS011;52653;50.080;21.992;2022-08-25T15:58:54;10.10;;;3.30;;
65871;SDS011;52653;50.080;21.992;2022-08-25T16:01:46;9.30;;;3.10;;
65871;SDS011;52653;50.080;21.992;2022-08-25T16:04:35;6.10;;;3.00;;
65871;SDS011;52653;50.080;21.992;2022-08-25T16:07:27;7.80;;;3.30;;
65871;SDS011;52653;50.080;21.992;2022-08-25T16:10:20;7.70;;;3.40;;
65871;SDS011;52653;50.080;21.992;2022-08-25T16:13:13;8.70;;;3.30;;
65871;SDS011;52653;50.080;21.992;2022-08-25T16:16:05;9.40;;;3.20;;
65871;SDS011;52653;50.080;21.992;2022-08-25T16:18:58;9.20;;;3.20;;
65871;SDS011;52653;50.080;21.992;2022-08-25T16:21:50;6.90;;;3.50;;
65871;SDS011;52653;50.080;21.992;2022-08-25T16:24:42;8.50;;;3.10;;
65871;SDS011;52653;50.080;21.992;2022-08-25T16:27:34;10.10;;;3.00;;
65871;SDS011;52653;50.080;21.992;2022-08-25T16:30:18;11.00;;;3.40;;
65871;SDS011;52653;50.080;21.992;2022-08-25T16:33:11;6.50;;;3.10;;
65871;SDS011;52653;50.080;21.992;2022-08-25T16:36:06;9.70;;;3.00;;
65871;SDS011;52653;50.080;21.992;2022-08-25T16:39:00;7.90;;;2.90;;
65871;SDS011;52653;50.080;21.992;2022-08-25T16:44:47;7.30;;;2.70;;
65871;SDS011;52653;50.080;21.992;2022-08-25T16:47:42;6.90;;;3.10;;
65871;SDS011;52653;50.080;21.992;2022-08-25T16:50:34;7.60;;;3.20;;
65871;SDS011;52653;50.080;21.992;2022-08-25T16:53:29;8.70;;;3.10;;
65871;SDS011;52653;50.080;21.992;2022-08-25T16:56:35;8.50;;;3.30;;
65871;SDS011;52653;50.080;21.992;2022-08-25T16:59:13;8.10;;;3.20;;
65871;SDS011;52653;50.080;21.992;2022-08-25T17:02:05;8.30;;;3.30;;
65871;SDS011;52653;50.080;21.992;2022-08-25T17:04:58;10.20;;;3.40;;
65871;SDS011;52653;50.080;21.992;2022-08-25T17:07:50;9.80;;;3.30;;
65871;SDS011;52653;50.080;21.992;2022-08-25T17:10:49;12.00;;;3.50;;
65871;SDS011;52653;50.080;21.992;2022-08-25T17:13:35;10.50;;;3.40;;
65871;SDS011;52653;50.080;21.992;2022-08-25T17:16:32;10.30;;;3.40;;
65871;SDS011;52653;50.080;21.992;2022-08-25T17:19:25;9.80;;;3.30;;
65871;SDS011;52653;50.080;21.992;2022-08-25T17:22:10;9.80;;;3.30;;
65871;SDS011;52653;50.080;21.992;2022-08-25T17:25:06;8.60;;;3.20;;
65871;SDS011;52653;50.080;21.992;2022-08-25T17:27:58;12.00;;;3.60;;
65871;SDS011;52653;50.080;21.992;2022-08-25T17:30:51;10.30;;;3.30;;